prfire.co.uk alexa rank chart, prfire.co.uk alexa rank daily changes

prfire.co.uk alexa rank chart, prfire.co.uk alexa rank daily changes

prfire.co.uk
Actual rank:
541 139

RANK HISTORY

Date Rank Diff
2017/07/21 541 139 +3 444
2017/07/20 537 695 -23 313
2017/07/19 561 008 -7 972
2017/07/18 568 980 -2 132
2017/07/17 571 112 +30 077
2017/07/16 541 035 +18 162
2017/07/15 522 873 -7 263
2017/07/14 530 136 +7 378
2017/07/13 522 758 -24 057
2017/07/12 546 815 -12 654
2017/07/11 559 469 -1 673
2017/07/10 561 142 +11 732
2017/07/09 549 410 +481
2017/07/08 548 929 +6 102
2017/07/07 542 827 -6 327
2017/07/06 549 154 -18 498
2017/07/05 567 652 -23 860
2017/07/04 591 512 +3 438
2017/07/03 588 074 +21 534
2017/07/02 566 540 -1 675
2017/07/01 568 215 +27 666
2017/06/30 540 549 -25 103
2017/06/29 565 652 -4 275
2017/06/28 569 927 -10 087
2017/06/27 580 014 +14 959
2017/06/26 565 055 +702
2017/06/25 564 353 -2 447
2017/06/24 566 800 -43 974
2017/06/23 610 774 -4 355
2017/06/22 615 129 -5 761
2017/06/21 620 890 -27 171
2017/06/20 648 061 +3 507
2017/06/19 644 554 +9 902
2017/06/18 634 652 +10 991
2017/06/17 623 661 -28 371
2017/06/16 652 032 -25 561
2017/06/15 677 593 +26 414
2017/06/14 651 179 +6 804
2017/06/13 644 375 +49 903
2017/06/12 594 472 +36 689
2017/06/11 557 783 +4 678
2017/06/10 553 105 -305
2017/06/09 553 410 +5 771
2017/06/08 547 639 -9 973
2017/06/07 557 612 +762
2017/06/06 556 850 +12 490
2017/06/05 544 360 +28 044
2017/06/04 516 316 +16 930
2017/06/03 499 386 -12 456
2017/06/02 511 842 -17 278
2017/06/01 529 120 -28 271
2017/05/31 557 391 -4 533
2017/05/30 561 924 +2 978
2017/05/29 558 946 +21 588
2017/05/28 537 358 +2 930
2017/05/27 534 428 +8 408
2017/05/26 526 020 -6 979
2017/05/25 532 999 -14 084
2017/05/24 547 083 +7 252
2017/05/23 539 831 +2 630
2017/05/22 537 201

WIDGET FOR YOUR SITE

DOMAINS WITH THE NEAREST RANK

Domain Rank
midsouthbank.com 541 134
decowall.ir 541 135
xn--80acfekkz0b1a6ftb.xn--p1ai 541 136
80yhg.com 541 137
cutebabespics.com 541 138
prfire.co.uk 541 139
mreadz.com 541 140
natomasunified.org 541 141
kagiken.co.jp 541 142
fishinginireland.info 541 143
ma-cloud.nl 541 144

DOMAINS WITH THE NEAREST RANK BY TLD .co.uk

Domain Rank
nightfreight.co.uk 540 751
land-registry-deeds.co.uk 540 890
liftingsafety.co.uk 540 970
custombats.co.uk 541 078
kinetic4health.co.uk 541 083
prfire.co.uk 541 139
dynamic-learning.co.uk 541 360
quins.co.uk 541 410
rock-tech.co.uk 541 455
whybuynew.co.uk 541 473
verisae.co.uk 541 562